Tyonek, AK

10:56 PM AKST on November 22, 2014 (GMT -0900)
MARITIME | Change Station
CLOSE
Current Station
Personal Weather Station
Location: Fritz Creek, AK
Elevation: 0 ft
Nearby Weather Stations

Elev 0 ft 59.60 °N, 151.40 °W | Updated 11 days ago

Snow
Snow
32 °F
Feels Like 26 °F
N
7
Wind Variable Wind from NE
Gusts 10 mph

Today
High -- | Low -- °F
--% Chance of Precip.
Yesterday
High -- | Low -- °F
Precip. -- in
9:27 AM 4:15 PM
New Moon, 1% visible
Pressure 29.23 in
Visibility 10.0 miles
Clouds Few 1900 ft
Overcast 4900 ft
Windchill 26 °F
Dew Point 29 °F
Humidity 92%
Rainfall -999.00 in
Snow Depth Not available.
UV 0 out of 12
Pollen Not available.
Air Quality Not available.
Flu Activity Not available.
SPECI PAEN 230727Z AUTO 05004KT 10SM FEW019 OVC049 M02/M03 A2923 RMK AO2 T10171028 TSNO

More Conditions Fewer Conditions

Pressure 29.23 in
Visibility 10.0 miles
Clouds Few 1900 ft
Overcast 4900 ft
Windchill 26 °F
Dew Point 29 °F
Humidity 92%
Rainfall -999.00 in
Snow Depth Not available.
UV 0 out of 12
Pollen Not available.
Air Quality Not available.
Flu Activity Not available.
SPECI PAEN 230727Z AUTO 05004KT 10SM FEW019 OVC049 M02/M03 A2923 RMK AO2 T10171028 TSNO

More Conditions Fewer Conditions

10-Day Weather Forecast

Almanac

Astronomy

Nov. 22, 2014 Rise Set
Actual Time
Civil Twilight
Nautical Twilight
Astronomical Twilight
Moon
Length of Visible Light
Length of Day
Tomorrow will be .
, % of the Moon is Illuminated

Today's Extremes

State Highs State Lows

Community

WunderPhotos

Upload Photos

1,773,024 photos uploaded!

WunderBlogs® & News

Nearby

Air Quality

  Air Quality AQ Index Pollutant
Not available.

Snow Depth

Station Depth Elevation

Earthquake Activity

City Distance Mag. Time & Date
Minimum magnitude displayed is 2.5.

Coastal Water Temperatures

Place Temperature

Nearby Weather Stations